sensor_id;sensor_type;location;lat;lon;timestamp;temperature;humidity
61672;DHT22;47572;0.00000000;0.00000000;2022-09-28T00:00:16;19.50;70.90
61672;DHT22;47572;0.00000000;0.00000000;2022-09-28T00:02:43;19.50;71.10
61672;DHT22;47572;0.00000000;0.00000000;2022-09-28T00:05:09;19.50;70.90
61672;DHT22;47572;0.00000000;0.00000000;2022-09-28T00:07:37;19.50;70.80
61672;DHT22;47572;0.00000000;0.00000000;2022-09-28T00:10:03;19.40;70.80
61672;DHT22;47572;0.00000000;0.00000000;2022-09-28T00:12:29;19.40;70.80
61672;DHT22;47572;0.00000000;0.00000000;2022-09-28T00:14:56;19.40;70.80
61672;DHT22;47572;0.00000000;0.00000000;2022-09-28T00:17:22;19.50;70.90
61672;DHT22;47572;0.00000000;0.00000000;2022-09-28T00:19:49;19.50;70.80
61672;DHT22;47572;0.00000000;0.00000000;2022-09-28T00:22:15;19.40;70.80
61672;DHT22;47572;0.00000000;0.00000000;2022-09-28T00:24:41;19.40;70.70
61672;DHT22;47572;0.00000000;0.00000000;2022-09-28T00:27:07;19.40;70.80
61672;DHT22;47572;0.00000000;0.00000000;2022-09-28T00:29:34;19.40;70.80
61672;DHT22;47572;0.00000000;0.00000000;2022-09-28T00:32:02;19.40;70.80
61672;DHT22;47572;0.00000000;0.00000000;2022-09-28T00:34:29;19.40;70.70
61672;DHT22;47572;0.00000000;0.00000000;2022-09-28T00:36:56;19.40;70.70
61672;DHT22;47572;0.00000000;0.00000000;2022-09-28T00:39:22;19.40;70.70
61672;DHT22;47572;0.00000000;0.00000000;2022-09-28T00:41:48;19.30;70.60
61672;DHT22;47572;0.00000000;0.00000000;2022-09-28T00:44:30;19.40;70.60
61672;DHT22;47572;0.00000000;0.00000000;2022-09-28T00:47:02;19.40;70.70
61672;DHT22;47572;0.00000000;0.00000000;2022-09-28T00:49:34;19.30;70.60
61672;DHT22;47572;0.00000000;0.00000000;2022-09-28T00:52:00;19.30;70.50
61672;DHT22;47572;0.00000000;0.00000000;2022-09-28T00:54:28;19.30;70.50
61672;DHT22;47572;0.00000000;0.00000000;2022-09-28T00:56:56;19.30;70.40
61672;DHT22;47572;0.00000000;0.00000000;2022-09-28T00:59:29;19.30;70.50
61672;DHT22;47572;0.00000000;0.00000000;2022-09-28T01:01:55;19.30;70.50
61672;DHT22;47572;0.00000000;0.00000000;2022-09-28T01:04:21;19.30;70.40
61672;DHT22;47572;0.00000000;0.00000000;2022-09-28T01:06:48;19.30;71.20
61672;DHT22;47572;0.00000000;0.00000000;2022-09-28T01:09:14;19.30;70.40
61672;DHT22;47572;0.00000000;0.00000000;2022-09-28T01:11:40;19.30;70.40
61672;DHT22;47572;0.00000000;0.00000000;2022-09-28T01:14:08;19.30;70.40
61672;DHT22;47572;0.00000000;0.00000000;2022-09-28T01:22:03;19.20;70.30
61672;DHT22;47572;0.00000000;0.00000000;2022-09-28T01:29:53;19.20;71.20
61672;DHT22;47572;0.00000000;0.00000000;2022-09-28T01:32:29;19.20;70.30
61672;DHT22;47572;0.00000000;0.00000000;2022-09-28T01:37:24;19.20;70.30
61672;DHT22;47572;0.00000000;0.00000000;2022-09-28T01:39:52;19.20;70.40
61672;DHT22;47572;0.00000000;0.00000000;2022-09-28T01:42:20;19.20;70.30
61672;DHT22;47572;0.00000000;0.00000000;2022-09-28T01:44:47;19.20;70.30
61672;DHT22;47572;0.00000000;0.00000000;2022-09-28T01:47:15;19.20;70.30
61672;DHT22;47572;0.00000000;0.00000000;2022-09-28T01:49:43;19.20;70.30
61672;DHT22;47572;0.00000000;0.00000000;2022-09-28T01:52:13;19.20;70.30
61672;DHT22;47572;0.00000000;0.00000000;2022-09-28T01:59:35;19.20;70.30
61672;DHT22;47572;0.00000000;0.00000000;2022-09-28T02:02:04;19.10;70.20
61672;DHT22;47572;0.00000000;0.00000000;2022-09-28T02:04:32;19.10;70.20
61672;DHT22;47572;0.00000000;0.00000000;2022-09-28T02:09:59;19.10;70.20
61672;DHT22;47572;0.00000000;0.00000000;2022-09-28T02:12:21;19.10;70.10
61672;DHT22;47572;0.00000000;0.00000000;2022-09-28T02:14:48;19.10;70.10
61672;DHT22;47572;0.00000000;0.00000000;2022-09-28T02:17:14;19.10;70.10
61672;DHT22;47572;0.00000000;0.00000000;2022-09-28T02:19:40;19.10;70.10
61672;DHT22;47572;0.00000000;0.00000000;2022-09-28T02:22:15;19.10;70.10
61672;DHT22;47572;0.00000000;0.00000000;2022-09-28T02:24:58;19.10;70.10
61672;DHT22;47572;0.00000000;0.00000000;2022-09-28T02:29:56;19.10;70.00
61672;DHT22;47572;0.00000000;0.00000000;2022-09-28T02:32:21;19.00;70.00
61672;DHT22;47572;0.00000000;0.00000000;2022-09-28T02:34:49;19.00;69.90
61672;DHT22;47572;0.00000000;0.00000000;2022-09-28T02:37:14;19.00;69.90
61672;DHT22;47572;0.00000000;0.00000000;2022-09-28T02:39:40;19.10;69.90
61672;DHT22;47572;0.00000000;0.00000000;2022-09-28T02:44:42;19.00;69.90
61672;DHT22;47572;0.00000000;0.00000000;2022-09-28T03:00:07;19.00;69.80
61672;DHT22;47572;0.00000000;0.00000000;2022-09-28T03:10:58;19.00;69.70
61672;DHT22;47572;0.00000000;0.00000000;2022-09-28T03:13:25;18.90;69.70
61672;DHT22;47572;0.00000000;0.00000000;2022-09-28T03:15:51;18.90;69.70
61672;DHT22;47572;0.00000000;0.00000000;2022-09-28T03:18:17;18.90;69.70
61672;DHT22;47572;0.00000000;0.00000000;2022-09-28T03:20:43;18.90;69.70
61672;DHT22;47572;0.00000000;0.00000000;2022-09-28T03:23:10;18.90;69.70
61672;DHT22;47572;0.00000000;0.00000000;2022-09-28T03:25:36;18.90;69.70
61672;DHT22;47572;0.00000000;0.00000000;2022-09-28T03:28:02;18.90;69.70
61672;DHT22;47572;0.00000000;0.00000000;2022-09-28T03:30:27;18.90;69.60
61672;DHT22;47572;0.00000000;0.00000000;2022-09-28T03:32:57;18.90;70.50
61672;DHT22;47572;0.00000000;0.00000000;2022-09-28T03:35:23;18.90;69.50
61672;DHT22;47572;0.00000000;0.00000000;2022-09-28T03:37:52;18.90;69.60
61672;DHT22;47572;0.00000000;0.00000000;2022-09-28T03:40:18;18.90;69.50
61672;DHT22;47572;0.00000000;0.00000000;2022-09-28T03:42:44;18.90;69.50
61672;DHT22;47572;0.00000000;0.00000000;2022-09-28T03:45:10;18.90;69.50
61672;DHT22;47572;0.00000000;0.00000000;2022-09-28T03:47:36;18.90;69.50
61672;DHT22;47572;0.00000000;0.00000000;2022-09-28T03:50:02;18.80;69.40
61672;DHT22;47572;0.00000000;0.00000000;2022-09-28T03:52:29;18.80;69.50
61672;DHT22;47572;0.00000000;0.00000000;2022-09-28T03:54:56;18.80;69.30
61672;DHT22;47572;0.00000000;0.00000000;2022-09-28T03:57:24;18.80;69.40
61672;DHT22;47572;0.00000000;0.00000000;2022-09-28T03:59:51;18.80;69.40
61672;DHT22;47572;0.00000000;0.00000000;2022-09-28T04:02:20;18.80;69.30
61672;DHT22;47572;0.00000000;0.00000000;2022-09-28T04:04:45;18.80;69.40
61672;DHT22;47572;0.00000000;0.00000000;2022-09-28T04:07:11;18.80;69.40
61672;DHT22;47572;0.00000000;0.00000000;2022-09-28T04:09:37;18.80;69.40
61672;DHT22;47572;0.00000000;0.00000000;2022-09-28T04:12:02;18.80;70.20
61672;DHT22;47572;0.00000000;0.00000000;2022-09-28T04:14:28;18.80;69.40
61672;DHT22;47572;0.00000000;0.00000000;2022-09-28T04:16:54;18.80;69.30
61672;DHT22;47572;0.00000000;0.00000000;2022-09-28T04:19:20;18.70;69.30
61672;DHT22;47572;0.00000000;0.00000000;2022-09-28T04:21:47;18.80;69.30
61672;DHT22;47572;0.00000000;0.00000000;2022-09-28T04:24:13;18.80;69.30
61672;DHT22;47572;0.00000000;0.00000000;2022-09-28T04:26:39;18.70;69.30
61672;DHT22;47572;0.00000000;0.00000000;2022-09-28T04:29:05;18.70;69.30
61672;DHT22;47572;0.00000000;0.00000000;2022-09-28T04:34:12;18.70;69.30
61672;DHT22;47572;0.00000000;0.00000000;2022-09-28T04:36:39;18.70;69.30
61672;DHT22;47572;0.00000000;0.00000000;2022-09-28T04:39:05;18.70;69.30
61672;DHT22;47572;0.00000000;0.00000000;2022-09-28T04:41:31;18.70;69.20
61672;DHT22;47572;0.00000000;0.00000000;2022-09-28T04:43:57;18.70;69.20
61672;DHT22;47572;0.00000000;0.00000000;2022-09-28T04:46:23;18.70;69.30
61672;DHT22;47572;0.00000000;0.00000000;2022-09-28T04:48:49;18.70;69.30
61672;DHT22;47572;0.00000000;0.00000000;2022-09-28T04:51:15;18.70;69.20
61672;DHT22;47572;0.00000000;0.00000000;2022-09-28T04:53:41;18.70;69.20
61672;DHT22;47572;0.00000000;0.00000000;2022-09-28T04:56:07;18.70;69.20
61672;DHT22;47572;0.00000000;0.00000000;2022-09-28T04:58:34;18.70;69.30
61672;DHT22;47572;0.00000000;0.00000000;2022-09-28T05:01:01;18.70;69.20
61672;DHT22;47572;0.00000000;0.00000000;2022-09-28T05:03:27;18.60;69.20
61672;DHT22;47572;0.00000000;0.00000000;2022-09-28T05:05:53;18.60;69.20
61672;DHT22;47572;0.00000000;0.00000000;2022-09-28T05:08:19;18.60;69.20
61672;DHT22;47572;0.00000000;0.00000000;2022-09-28T05:10:44;18.60;69.20
61672;DHT22;47572;0.00000000;0.00000000;2022-09-28T05:13:11;18.60;69.20
61672;DHT22;47572;0.00000000;0.00000000;2022-09-28T05:15:37;18.60;69.20
61672;DHT22;47572;0.00000000;0.00000000;2022-09-28T05:18:03;18.60;69.20
61672;DHT22;47572;0.00000000;0.00000000;2022-09-28T05:20:29;18.60;70.00
61672;DHT22;47572;0.00000000;0.00000000;2022-09-28T05:22:55;18.60;69.20
61672;DHT22;47572;0.00000000;0.00000000;2022-09-28T05:25:24;18.60;69.10
61672;DHT22;47572;0.00000000;0.00000000;2022-09-28T05:27:54;18.60;69.20
61672;DHT22;47572;0.00000000;0.00000000;2022-09-28T05:30:20;18.60;69.10
61672;DHT22;47572;0.00000000;0.00000000;2022-09-28T05:32:47;18.60;69.20
61672;DHT22;47572;0.00000000;0.00000000;2022-09-28T05:35:13;18.60;69.20
61672;DHT22;47572;0.00000000;0.00000000;2022-09-28T05:37:39;18.60;69.10
61672;DHT22;47572;0.00000000;0.00000000;2022-09-28T05:40:05;18.50;69.10
61672;DHT22;47572;0.00000000;0.00000000;2022-09-28T05:42:31;18.50;69.10
61672;DHT22;47572;0.00000000;0.00000000;2022-09-28T05:44:57;18.50;69.00
61672;DHT22;47572;0.00000000;0.00000000;2022-09-28T05:47:24;18.50;69.10
61672;DHT22;47572;0.00000000;0.00000000;2022-09-28T05:49:50;18.60;69.20
61672;DHT22;47572;0.00000000;0.00000000;2022-09-28T05:52:16;18.50;69.00
61672;DHT22;47572;0.00000000;0.00000000;2022-09-28T05:54:42;18.50;69.00
61672;DHT22;47572;0.00000000;0.00000000;2022-09-28T05:57:08;18.50;69.00
61672;DHT22;47572;0.00000000;0.00000000;2022-09-28T05:59:34;18.50;69.00
61672;DHT22;47572;0.00000000;0.00000000;2022-09-28T06:02:00;18.50;69.00
61672;DHT22;47572;0.00000000;0.00000000;2022-09-28T06:04:26;18.50;69.00
61672;DHT22;47572;0.00000000;0.00000000;2022-09-28T06:06:53;18.50;69.00
61672;DHT22;47572;0.00000000;0.00000000;2022-09-28T06:09:19;18.50;69.10
61672;DHT22;47572;0.00000000;0.00000000;2022-09-28T06:11:45;18.50;69.00
61672;DHT22;47572;0.00000000;0.00000000;2022-09-28T06:14:11;18.50;69.00
61672;DHT22;47572;0.00000000;0.00000000;2022-09-28T06:16:38;18.50;68.90
61672;DHT22;47572;0.00000000;0.00000000;2022-09-28T06:19:04;18.50;69.00
61672;DHT22;47572;0.00000000;0.00000000;2022-09-28T06:21:29;18.50;68.90
61672;DHT22;47572;0.00000000;0.00000000;2022-09-28T06:23:55;18.50;69.00
61672;DHT22;47572;0.00000000;0.00000000;2022-09-28T06:26:22;18.50;67.40
61672;DHT22;47572;0.00000000;0.00000000;2022-09-28T06:28:48;18.40;66.90
61672;DHT22;47572;0.00000000;0.00000000;2022-09-28T06:31:13;18.40;67.20
61672;DHT22;47572;0.00000000;0.00000000;2022-09-28T06:33:40;18.40;67.70
61672;DHT22;47572;0.00000000;0.00000000;2022-09-28T06:36:06;18.40;68.10
61672;DHT22;47572;0.00000000;0.00000000;2022-09-28T06:38:32;18.40;68.10
61672;DHT22;47572;0.00000000;0.00000000;2022-09-28T06:40:58;18.40;68.20
61672;DHT22;47572;0.00000000;0.00000000;2022-09-28T06:43:24;18.40;68.30
61672;DHT22;47572;0.00000000;0.00000000;2022-09-28T06:45:50;18.40;68.50
61672;DHT22;47572;0.00000000;0.00000000;2022-09-28T06:48:16;18.40;68.60
61672;DHT22;47572;0.00000000;0.00000000;2022-09-28T06:50:42;18.40;68.70
61672;DHT22;47572;0.00000000;0.00000000;2022-09-28T06:53:09;18.40;68.80
61672;DHT22;47572;0.00000000;0.00000000;2022-09-28T06:55:45;18.50;68.90
61672;DHT22;47572;0.00000000;0.00000000;2022-09-28T06:58:14;18.60;68.90
61672;DHT22;47572;0.00000000;0.00000000;2022-09-28T07:00:40;18.70;68.70
61672;DHT22;47572;0.00000000;0.00000000;2022-09-28T07:03:07;18.80;68.50
61672;DHT22;47572;0.00000000;0.00000000;2022-09-28T07:05:33;18.90;68.30
61672;DHT22;47572;0.00000000;0.00000000;2022-09-28T07:08:01;19.00;68.00
61672;DHT22;47572;0.00000000;0.00000000;2022-09-28T07:10:28;19.10;67.70
61672;DHT22;47572;0.00000000;0.00000000;2022-09-28T07:12:54;19.30;67.50
61672;DHT22;47572;0.00000000;0.00000000;2022-09-28T07:15:20;19.40;67.10
61672;DHT22;47572;0.00000000;0.00000000;2022-09-28T07:17:46;19.50;66.80
61672;DHT22;47572;0.00000000;0.00000000;2022-09-28T07:20:12;19.60;66.60
61672;DHT22;47572;0.00000000;0.00000000;2022-09-28T07:22:38;19.70;66.40
61672;DHT22;47572;0.00000000;0.00000000;2022-09-28T07:25:07;19.70;66.30
61672;DHT22;47572;0.00000000;0.00000000;2022-09-28T07:27:34;19.70;66.20
61672;DHT22;47572;0.00000000;0.00000000;2022-09-28T07:30:02;19.80;66.20
61672;DHT22;47572;0.00000000;0.00000000;2022-09-28T07:32:28;19.80;66.10
61672;DHT22;47572;0.00000000;0.00000000;2022-09-28T07:34:54;19.90;66.20
61672;DHT22;47572;0.00000000;0.00000000;2022-09-28T07:37:20;19.90;66.10
61672;DHT22;47572;0.00000000;0.00000000;2022-09-28T07:39:48;20.00;66.00
61672;DHT22;47572;0.00000000;0.00000000;2022-09-28T07:42:33;20.10;65.90
61672;DHT22;47572;0.00000000;0.00000000;2022-09-28T07:44:58;20.10;65.70
61672;DHT22;47572;0.00000000;0.00000000;2022-09-28T07:47:25;20.20;65.70
61672;DHT22;47572;0.00000000;0.00000000;2022-09-28T07:49:54;20.30;65.60
61672;DHT22;47572;0.00000000;0.00000000;2022-09-28T07:52:24;20.30;65.50
61672;DHT22;47572;0.00000000;0.00000000;2022-09-28T07:54:51;20.40;65.90
61672;DHT22;47572;0.00000000;0.00000000;2022-09-28T07:57:18;20.40;65.30
61672;DHT22;47572;0.00000000;0.00000000;2022-09-28T07:59:44;20.50;65.30
61672;DHT22;47572;0.00000000;0.00000000;2022-09-28T08:02:10;20.60;65.20
61672;DHT22;47572;0.00000000;0.00000000;2022-09-28T08:04:35;20.60;65.20
61672;DHT22;47572;0.00000000;0.00000000;2022-09-28T08:07:01;20.70;65.10
61672;DHT22;47572;0.00000000;0.00000000;2022-09-28T08:09:27;20.70;65.10
61672;DHT22;47572;0.00000000;0.00000000;2022-09-28T08:11:53;20.70;65.00
61672;DHT22;47572;0.00000000;0.00000000;2022-09-28T08:14:19;20.80;65.10
61672;DHT22;47572;0.00000000;0.00000000;2022-09-28T08:16:45;20.80;65.00
61672;DHT22;47572;0.00000000;0.00000000;2022-09-28T08:19:11;20.80;65.00
61672;DHT22;47572;0.00000000;0.00000000;2022-09-28T08:21:37;20.90;65.00
61672;DHT22;47572;0.00000000;0.00000000;2022-09-28T08:24:12;20.90;64.90
61672;DHT22;47572;0.00000000;0.00000000;2022-09-28T08:26:38;21.00;64.90
61672;DHT22;47572;0.00000000;0.00000000;2022-09-28T08:29:05;21.00;64.80
61672;DHT22;47572;0.00000000;0.00000000;2022-09-28T08:31:31;21.00;64.80
61672;DHT22;47572;0.00000000;0.00000000;2022-09-28T08:33:56;21.00;64.70
61672;DHT22;47572;0.00000000;0.00000000;2022-09-28T08:36:22;21.10;64.80
61672;DHT22;47572;0.00000000;0.00000000;2022-09-28T08:38:48;21.10;64.80
61672;DHT22;47572;0.00000000;0.00000000;2022-09-28T08:41:20;21.20;64.80
61672;DHT22;47572;0.00000000;0.00000000;2022-09-28T08:46:30;21.20;64.70
61672;DHT22;47572;0.00000000;0.00000000;2022-09-28T08:49:00;21.20;64.60
61672;DHT22;47572;0.00000000;0.00000000;2022-09-28T08:58:52;21.00;64.90
61672;DHT22;47572;0.00000000;0.00000000;2022-09-28T09:01:19;21.00;65.10
61672;DHT22;47572;0.00000000;0.00000000;2022-09-28T09:03:46;20.90;65.00
61672;DHT22;47572;0.00000000;0.00000000;2022-09-28T09:06:21;20.90;65.40
61672;DHT22;47572;0.00000000;0.00000000;2022-09-28T09:21:32;20.60;66.30
61672;DHT22;47572;0.00000000;0.00000000;2022-09-28T09:26:46;20.50;66.30
61672;DHT22;47572;0.00000000;0.00000000;2022-09-28T09:36:56;20.40;65.90
61672;DHT22;47572;0.00000000;0.00000000;2022-09-28T09:45:17;20.30;65.80
61672;DHT22;47572;0.00000000;0.00000000;2022-09-28T09:47:53;20.30;66.00
61672;DHT22;47572;0.00000000;0.00000000;2022-09-28T09:52:50;20.30;66.10
61672;DHT22;47572;0.00000000;0.00000000;2022-09-28T09:57:50;20.20;66.00
61672;DHT22;47572;0.00000000;0.00000000;2022-09-28T10:00:18;20.20;65.90
61672;DHT22;47572;0.00000000;0.00000000;2022-09-28T10:02:45;20.20;66.00
61672;DHT22;47572;0.00000000;0.00000000;2022-09-28T10:07:38;20.10;65.90
61672;DHT22;47572;0.00000000;0.00000000;2022-09-28T10:10:19;20.10;66.00
61672;DHT22;47572;0.00000000;0.00000000;2022-09-28T10:12:46;20.10;66.00
61672;DHT22;47572;0.00000000;0.00000000;2022-09-28T10:15:14;20.10;65.90
61672;DHT22;47572;0.00000000;0.00000000;2022-09-28T10:17:40;20.00;65.80
61672;DHT22;47572;0.00000000;0.00000000;2022-09-28T10:20:10;20.00;65.70
61672;DHT22;47572;0.00000000;0.00000000;2022-09-28T10:22:37;20.00;65.70
61672;DHT22;47572;0.00000000;0.00000000;2022-09-28T10:25:02;20.00;65.70
61672;DHT22;47572;0.00000000;0.00000000;2022-09-28T10:27:30;20.00;65.70
61672;DHT22;47572;0.00000000;0.00000000;2022-09-28T10:43:01;20.00;64.50
61672;DHT22;47572;0.00000000;0.00000000;2022-09-28T10:45:27;20.00;64.20
61672;DHT22;47572;0.00000000;0.00000000;2022-09-28T10:47:57;20.00;64.60
61672;DHT22;47572;0.00000000;0.00000000;2022-09-28T10:50:25;20.00;64.60
61672;DHT22;47572;0.00000000;0.00000000;2022-09-28T10:52:52;20.00;64.80
61672;DHT22;47572;0.00000000;0.00000000;2022-09-28T10:55:25;19.90;64.90
61672;DHT22;47572;0.00000000;0.00000000;2022-09-28T10:57:51;19.90;65.00
61672;DHT22;47572;0.00000000;0.00000000;2022-09-28T11:00:34;19.90;65.10
61672;DHT22;47572;0.00000000;0.00000000;2022-09-28T11:03:02;19.90;65.30
61672;DHT22;47572;0.00000000;0.00000000;2022-09-28T11:05:28;19.80;65.30
61672;DHT22;47572;0.00000000;0.00000000;2022-09-28T11:07:55;19.80;65.30
61672;DHT22;47572;0.00000000;0.00000000;2022-09-28T11:10:22;19.80;65.50
61672;DHT22;47572;0.00000000;0.00000000;2022-09-28T11:12:49;19.80;65.50
61672;DHT22;47572;0.00000000;0.00000000;2022-09-28T11:15:16;19.70;65.50
61672;DHT22;47572;0.00000000;0.00000000;2022-09-28T11:17:43;19.70;65.50
61672;DHT22;47572;0.00000000;0.00000000;2022-09-28T11:23:35;19.70;65.40
61672;DHT22;47572;0.00000000;0.00000000;2022-09-28T11:25:35;19.70;65.50
61672;DHT22;47572;0.00000000;0.00000000;2022-09-28T11:28:01;19.60;65.40
61672;DHT22;47572;0.00000000;0.00000000;2022-09-28T11:30:32;19.60;65.50
61672;DHT22;47572;0.00000000;0.00000000;2022-09-28T11:33:02;19.60;65.30
61672;DHT22;47572;0.00000000;0.00000000;2022-09-28T11:38:07;19.60;65.40
61672;DHT22;47572;0.00000000;0.00000000;2022-09-28T11:41:11;19.60;65.40
61672;DHT22;47572;0.00000000;0.00000000;2022-09-28T11:46:03;19.60;65.20
61672;DHT22;47572;0.00000000;0.00000000;2022-09-28T11:48:37;19.60;65.20
61672;DHT22;47572;0.00000000;0.00000000;2022-09-28T11:51:07;19.60;65.20
61672;DHT22;47572;0.00000000;0.00000000;2022-09-28T11:53:34;19.60;65.30
61672;DHT22;47572;0.00000000;0.00000000;2022-09-28T11:58:41;19.60;65.40
61672;DHT22;47572;0.00000000;0.00000000;2022-09-28T12:01:33;19.60;65.40
61672;DHT22;47572;0.00000000;0.00000000;2022-09-28T12:04:08;19.60;65.50
61672;DHT22;47572;0.00000000;0.00000000;2022-09-28T12:09:18;19.50;65.60
61672;DHT22;47572;0.00000000;0.00000000;2022-09-28T12:11:48;19.50;65.70
61672;DHT22;47572;0.00000000;0.00000000;2022-09-28T12:14:19;19.50;65.70
61672;DHT22;47572;0.00000000;0.00000000;2022-09-28T12:16:52;19.50;65.80
61672;DHT22;47572;0.00000000;0.00000000;2022-09-28T12:19:41;19.50;66.00
61672;DHT22;47572;0.00000000;0.00000000;2022-09-28T12:22:15;19.50;66.00
61672;DHT22;47572;0.00000000;0.00000000;2022-09-28T12:24:45;19.50;66.00
61672;DHT22;47572;0.00000000;0.00000000;2022-09-28T12:29:59;19.50;66.00
61672;DHT22;47572;0.00000000;0.00000000;2022-09-28T12:32:31;19.50;66.00
61672;DHT22;47572;0.00000000;0.00000000;2022-09-28T12:35:00;19.50;66.10
61672;DHT22;47572;0.00000000;0.00000000;2022-09-28T12:37:29;19.50;66.00
61672;DHT22;47572;0.00000000;0.00000000;2022-09-28T12:40:03;19.50;66.00
61672;DHT22;47572;0.00000000;0.00000000;2022-09-28T12:42:36;19.50;66.20
61672;DHT22;47572;0.00000000;0.00000000;2022-09-28T12:55:25;19.60;66.10
61672;DHT22;47572;0.00000000;0.00000000;2022-09-28T13:00:44;19.60;66.10
61672;DHT22;47572;0.00000000;0.00000000;2022-09-28T13:08:47;19.60;65.90
61672;DHT22;47572;0.00000000;0.00000000;2022-09-28T13:14:09;19.60;65.80
61672;DHT22;47572;0.00000000;0.00000000;2022-09-28T13:16:41;19.70;65.70
61672;DHT22;47572;0.00000000;0.00000000;2022-09-28T13:19:10;19.70;65.70
61672;DHT22;47572;0.00000000;0.00000000;2022-09-28T13:21:42;19.70;65.80
61672;DHT22;47572;0.00000000;0.00000000;2022-09-28T13:24:15;19.70;65.70
61672;DHT22;47572;0.00000000;0.00000000;2022-09-28T13:26:43;19.70;65.50
61672;DHT22;47572;0.00000000;0.00000000;2022-09-28T13:29:14;19.70;65.60
61672;DHT22;47572;0.00000000;0.00000000;2022-09-28T13:31:44;19.70;65.50
61672;DHT22;47572;0.00000000;0.00000000;2022-09-28T13:34:15;19.70;65.40
61672;DHT22;47572;0.00000000;0.00000000;2022-09-28T13:36:45;19.70;65.30
61672;DHT22;47572;0.00000000;0.00000000;2022-09-28T13:41:55;19.70;65.00
61672;DHT22;47572;0.00000000;0.00000000;2022-09-28T13:44:26;19.70;65.10
61672;DHT22;47572;0.00000000;0.00000000;2022-09-28T13:52:24;19.60;65.00
61672;DHT22;47572;0.00000000;0.00000000;2022-09-28T14:04:55;19.60;64.60
61672;DHT22;47572;0.00000000;0.00000000;2022-09-28T14:07:25;19.60;64.70
61672;DHT22;47572;0.00000000;0.00000000;2022-09-28T14:12:49;19.60;64.60
61672;DHT22;47572;0.00000000;0.00000000;2022-09-28T14:17:58;19.60;64.90
61672;DHT22;47572;0.00000000;0.00000000;2022-09-28T14:20:25;19.60;65.10
61672;DHT22;47572;0.00000000;0.00000000;2022-09-28T14:25:23;19.60;65.40
61672;DHT22;47572;0.00000000;0.00000000;2022-09-28T14:35:58;19.90;65.60
61672;DHT22;47572;0.00000000;0.00000000;2022-09-28T14:38:36;20.00;65.30
61672;DHT22;47572;0.00000000;0.00000000;2022-09-28T14:41:29;20.20;65.00
61672;DHT22;47572;0.00000000;0.00000000;2022-09-28T14:46:28;20.40;64.00
61672;DHT22;47572;0.00000000;0.00000000;2022-09-28T14:48:58;20.60;63.60
61672;DHT22;47572;0.00000000;0.00000000;2022-09-28T14:56:30;20.90;62.40
61672;DHT22;47572;0.00000000;0.00000000;2022-09-28T14:58:57;21.00;62.10
61672;DHT22;47572;0.00000000;0.00000000;2022-09-28T15:01:23;21.10;62.60
61672;DHT22;47572;0.00000000;0.00000000;2022-09-28T15:03:50;21.20;61.60
61672;DHT22;47572;0.00000000;0.00000000;2022-09-28T15:06:16;21.30;61.20
61672;DHT22;47572;0.00000000;0.00000000;2022-09-28T15:08:44;21.40;61.30
61672;DHT22;47572;0.00000000;0.00000000;2022-09-28T15:11:19;21.40;61.00
61672;DHT22;47572;0.00000000;0.00000000;2022-09-28T15:13:46;21.40;60.80
61672;DHT22;47572;0.00000000;0.00000000;2022-09-28T15:16:14;21.50;60.80
61672;DHT22;47572;0.00000000;0.00000000;2022-09-28T15:21:18;21.60;60.60
61672;DHT22;47572;0.00000000;0.00000000;2022-09-28T15:23:45;21.60;60.50
61672;DHT22;47572;0.00000000;0.00000000;2022-09-28T15:26:31;21.60;60.40
61672;DHT22;47572;0.00000000;0.00000000;2022-09-28T15:28:57;21.70;60.50
61672;DHT22;47572;0.00000000;0.00000000;2022-09-28T15:31:24;21.70;60.50
61672;DHT22;47572;0.00000000;0.00000000;2022-09-28T15:33:50;21.70;60.50
61672;DHT22;47572;0.00000000;0.00000000;2022-09-28T15:36:37;21.70;60.60
61672;DHT22;47572;0.00000000;0.00000000;2022-09-28T15:41:29;21.80;60.70
61672;DHT22;47572;0.00000000;0.00000000;2022-09-28T15:46:37;21.80;60.70
61672;DHT22;47572;0.00000000;0.00000000;2022-09-28T15:49:03;21.80;60.80
61672;DHT22;47572;0.00000000;0.00000000;2022-09-28T15:51:30;21.80;60.90
61672;DHT22;47572;0.00000000;0.00000000;2022-09-28T15:54:06;21.80;61.00
61672;DHT22;47572;0.00000000;0.00000000;2022-09-28T15:57:26;21.80;61.00
61672;DHT22;47572;0.00000000;0.00000000;2022-09-28T16:04:42;21.80;61.30
61672;DHT22;47572;0.00000000;0.00000000;2022-09-28T16:09:54;21.80;61.40
61672;DHT22;47572;0.00000000;0.00000000;2022-09-28T16:12:20;21.80;61.40
61672;DHT22;47572;0.00000000;0.00000000;2022-09-28T16:14:55;21.80;61.50
61672;DHT22;47572;0.00000000;0.00000000;2022-09-28T16:17:24;21.70;61.40
61672;DHT22;47572;0.00000000;0.00000000;2022-09-28T16:19:55;21.70;61.40
61672;DHT22;47572;0.00000000;0.00000000;2022-09-28T16:22:21;21.70;61.40
61672;DHT22;47572;0.00000000;0.00000000;2022-09-28T16:24:54;21.70;61.40
61672;DHT22;47572;0.00000000;0.00000000;2022-09-28T16:30:13;21.70;61.40
61672;DHT22;47572;0.00000000;0.00000000;2022-09-28T16:35:23;21.70;61.40
61672;DHT22;47572;0.00000000;0.00000000;2022-09-28T16:37:55;21.70;61.40
61672;DHT22;47572;0.00000000;0.00000000;2022-09-28T16:40:21;21.70;61.50
61672;DHT22;47572;0.00000000;0.00000000;2022-09-28T16:42:47;21.70;61.60
61672;DHT22;47572;0.00000000;0.00000000;2022-09-28T16:45:17;21.70;61.60
61672;DHT22;47572;0.00000000;0.00000000;2022-09-28T16:47:44;21.70;61.70
61672;DHT22;47572;0.00000000;0.00000000;2022-09-28T16:50:14;21.70;61.70
61672;DHT22;47572;0.00000000;0.00000000;2022-09-28T16:52:41;21.70;61.80
61672;DHT22;47572;0.00000000;0.00000000;2022-09-28T16:55:25;21.70;61.90
61672;DHT22;47572;0.00000000;0.00000000;2022-09-28T16:57:51;21.70;61.90
61672;DHT22;47572;0.00000000;0.00000000;2022-09-28T17:00:22;21.70;62.00
61672;DHT22;47572;0.00000000;0.00000000;2022-09-28T17:02:48;21.70;62.00
61672;DHT22;47572;0.00000000;0.00000000;2022-09-28T17:05:15;21.70;62.10
61672;DHT22;47572;0.00000000;0.00000000;2022-09-28T17:07:42;21.70;63.00
61672;DHT22;47572;0.00000000;0.00000000;2022-09-28T17:10:12;21.70;62.20